sensor_id;sensor_type;location;lat;lon;timestamp;P1;durP1;ratioP1;P2;durP2;ratioP2
17796;SDS011;55596;53.554;9.916;2023-12-07T00:01:48;237.80;;;63.03;;
17796;SDS011;55596;53.554;9.916;2023-12-07T00:04:15;213.77;;;57.73;;
17796;SDS011;55596;53.554;9.916;2023-12-07T00:06:42;227.40;;;59.57;;
17796;SDS011;55596;53.554;9.916;2023-12-07T00:09:09;214.40;;;57.57;;
17796;SDS011;55596;53.554;9.916;2023-12-07T00:11:37;236.63;;;60.80;;
17796;SDS011;55596;53.554;9.916;2023-12-07T00:14:05;216.67;;;58.07;;
17796;SDS011;55596;53.554;9.916;2023-12-07T00:16:32;201.47;;;59.80;;
17796;SDS011;55596;53.554;9.916;2023-12-07T00:18:59;206.73;;;61.00;;
17796;SDS011;55596;53.554;9.916;2023-12-07T00:21:26;226.17;;;57.50;;
17796;SDS011;55596;53.554;9.916;2023-12-07T00:23:53;207.03;;;58.23;;
17796;SDS011;55596;53.554;9.916;2023-12-07T00:26:20;201.33;;;58.83;;
17796;SDS011;55596;53.554;9.916;2023-12-07T00:28:49;201.53;;;56.53;;
17796;SDS011;55596;53.554;9.916;2023-12-07T00:31:16;264.83;;;59.27;;
17796;SDS011;55596;53.554;9.916;2023-12-07T00:33:45;195.30;;;57.20;;
17796;SDS011;55596;53.554;9.916;2023-12-07T00:36:12;208.17;;;57.17;;
17796;SDS011;55596;53.554;9.916;2023-12-07T00:38:39;216.03;;;56.33;;
17796;SDS011;55596;53.554;9.916;2023-12-07T00:41:07;211.67;;;57.67;;
17796;SDS011;55596;53.554;9.916;2023-12-07T00:43:34;200.13;;;57.87;;
17796;SDS011;55596;53.554;9.916;2023-12-07T00:46:03;204.10;;;56.37;;
17796;SDS011;55596;53.554;9.916;2023-12-07T00:48:30;199.73;;;55.83;;
17796;SDS011;55596;53.554;9.916;2023-12-07T00:50:57;198.57;;;58.30;;
17796;SDS011;55596;53.554;9.916;2023-12-07T00:53:24;198.50;;;56.33;;
17796;SDS011;55596;53.554;9.916;2023-12-07T00:55:51;200.97;;;55.67;;
17796;SDS011;55596;53.554;9.916;2023-12-07T00:58:18;197.30;;;57.00;;
17796;SDS011;55596;53.554;9.916;2023-12-07T01:00:45;196.57;;;55.33;;
17796;SDS011;55596;53.554;9.916;2023-12-07T01:03:14;210.23;;;54.93;;
17796;SDS011;55596;53.554;9.916;2023-12-07T01:05:41;188.87;;;54.27;;
17796;SDS011;55596;53.554;9.916;2023-12-07T01:08:08;190.13;;;57.20;;
17796;SDS011;55596;53.554;9.916;2023-12-07T01:10:35;185.00;;;54.10;;
17796;SDS011;55596;53.554;9.916;2023-12-07T01:13:02;193.83;;;54.73;;
17796;SDS011;55596;53.554;9.916;2023-12-07T01:15:29;188.17;;;54.17;;
17796;SDS011;55596;53.554;9.916;2023-12-07T01:17:56;194.87;;;53.67;;
17796;SDS011;55596;53.554;9.916;2023-12-07T01:20:25;204.00;;;53.27;;
17796;SDS011;55596;53.554;9.916;2023-12-07T01:22:52;187.93;;;54.37;;
17796;SDS011;55596;53.554;9.916;2023-12-07T01:25:20;195.87;;;53.97;;
17796;SDS011;55596;53.554;9.916;2023-12-07T01:27:47;198.20;;;55.23;;
17796;SDS011;55596;53.554;9.916;2023-12-07T01:30:14;241.53;;;54.90;;
17796;SDS011;55596;53.554;9.916;2023-12-07T01:32:41;193.33;;;53.83;;
17796;SDS011;55596;53.554;9.916;2023-12-07T01:35:09;184.17;;;54.60;;
17796;SDS011;55596;53.554;9.916;2023-12-07T01:37:37;187.37;;;53.67;;
17796;SDS011;55596;53.554;9.916;2023-12-07T01:40:05;162.40;;;50.10;;
17796;SDS011;55596;53.554;9.916;2023-12-07T01:42:35;160.20;;;50.70;;
17796;SDS011;55596;53.554;9.916;2023-12-07T01:45:02;146.80;;;49.00;;
17796;SDS011;55596;53.554;9.916;2023-12-07T01:47:29;165.60;;;51.00;;
17796;SDS011;55596;53.554;9.916;2023-12-07T01:49:57;149.57;;;49.03;;
17796;SDS011;55596;53.554;9.916;2023-12-07T01:52:24;151.97;;;49.70;;
17796;SDS011;55596;53.554;9.916;2023-12-07T01:54:53;148.60;;;49.47;;
17796;SDS011;55596;53.554;9.916;2023-12-07T01:57:21;156.57;;;48.10;;
17796;SDS011;55596;53.554;9.916;2023-12-07T01:59:48;146.20;;;49.43;;
17796;SDS011;55596;53.554;9.916;2023-12-07T02:02:16;157.70;;;49.47;;
17796;SDS011;55596;53.554;9.916;2023-12-07T02:04:43;148.67;;;50.43;;
17796;SDS011;55596;53.554;9.916;2023-12-07T02:07:10;145.63;;;49.23;;
17796;SDS011;55596;53.554;9.916;2023-12-07T02:09:37;151.67;;;50.13;;
17796;SDS011;55596;53.554;9.916;2023-12-07T02:12:06;132.07;;;48.67;;
17796;SDS011;55596;53.554;9.916;2023-12-07T02:14:33;147.63;;;48.47;;
17796;SDS011;55596;53.554;9.916;2023-12-07T02:17:01;141.27;;;49.83;;
17796;SDS011;55596;53.554;9.916;2023-12-07T02:19:42;132.50;;;47.90;;
17796;SDS011;55596;53.554;9.916;2023-12-07T02:22:14;137.60;;;48.80;;
17796;SDS011;55596;53.554;9.916;2023-12-07T02:24:46;140.60;;;48.37;;
17796;SDS011;55596;53.554;9.916;2023-12-07T02:27:15;144.23;;;50.30;;
17796;SDS011;55596;53.554;9.916;2023-12-07T02:29:43;137.73;;;48.83;;
17796;SDS011;55596;53.554;9.916;2023-12-07T02:32:10;129.80;;;47.47;;
17796;SDS011;55596;53.554;9.916;2023-12-07T02:34:37;132.23;;;47.10;;
17796;SDS011;55596;53.554;9.916;2023-12-07T02:37:04;133.43;;;48.00;;
17796;SDS011;55596;53.554;9.916;2023-12-07T02:39:31;143.93;;;50.47;;
17796;SDS011;55596;53.554;9.916;2023-12-07T02:41:59;146.83;;;49.87;;
17796;SDS011;55596;53.554;9.916;2023-12-07T02:44:28;147.80;;;49.97;;
17796;SDS011;55596;53.554;9.916;2023-12-07T02:46:56;149.03;;;49.67;;
17796;SDS011;55596;53.554;9.916;2023-12-07T02:49:25;143.83;;;50.43;;
17796;SDS011;55596;53.554;9.916;2023-12-07T02:51:52;160.43;;;51.27;;
17796;SDS011;55596;53.554;9.916;2023-12-07T02:54:19;148.03;;;51.07;;
17796;SDS011;55596;53.554;9.916;2023-12-07T02:56:47;139.80;;;49.47;;
17796;SDS011;55596;53.554;9.916;2023-12-07T02:59:15;130.20;;;48.33;;
17796;SDS011;55596;53.554;9.916;2023-12-07T03:01:43;125.67;;;47.13;;
17796;SDS011;55596;53.554;9.916;2023-12-07T03:04:10;120.30;;;47.03;;
17796;SDS011;55596;53.554;9.916;2023-12-07T03:06:37;119.57;;;46.90;;
17796;SDS011;55596;53.554;9.916;2023-12-07T03:09:04;111.90;;;46.60;;
17796;SDS011;55596;53.554;9.916;2023-12-07T03:11:32;117.37;;;45.53;;
17796;SDS011;55596;53.554;9.916;2023-12-07T03:14:02;126.73;;;47.37;;
17796;SDS011;55596;53.554;9.916;2023-12-07T03:16:29;109.47;;;46.97;;
17796;SDS011;55596;53.554;9.916;2023-12-07T03:18:57;106.93;;;43.70;;
17796;SDS011;55596;53.554;9.916;2023-12-07T03:21:24;111.30;;;43.80;;
17796;SDS011;55596;53.554;9.916;2023-12-07T03:23:52;112.97;;;44.87;;
17796;SDS011;55596;53.554;9.916;2023-12-07T03:26:19;97.23;;;41.90;;
17796;SDS011;55596;53.554;9.916;2023-12-07T03:28:47;105.20;;;43.37;;
17796;SDS011;55596;53.554;9.916;2023-12-07T03:31:14;113.93;;;43.37;;
17796;SDS011;55596;53.554;9.916;2023-12-07T03:33:41;108.43;;;45.03;;
17796;SDS011;55596;53.554;9.916;2023-12-07T03:36:11;103.63;;;42.77;;
17796;SDS011;55596;53.554;9.916;2023-12-07T03:38:39;106.10;;;45.50;;
17796;SDS011;55596;53.554;9.916;2023-12-07T03:41:06;107.97;;;46.53;;
17796;SDS011;55596;53.554;9.916;2023-12-07T03:43:33;101.00;;;43.83;;
17796;SDS011;55596;53.554;9.916;2023-12-07T03:45:59;106.90;;;45.60;;
17796;SDS011;55596;53.554;9.916;2023-12-07T03:48:26;112.97;;;45.53;;
17796;SDS011;55596;53.554;9.916;2023-12-07T03:50:53;102.20;;;43.10;;
17796;SDS011;55596;53.554;9.916;2023-12-07T03:53:22;101.20;;;42.67;;
17796;SDS011;55596;53.554;9.916;2023-12-07T03:55:49;103.67;;;43.67;;
17796;SDS011;55596;53.554;9.916;2023-12-07T03:58:16;90.60;;;42.67;;
17796;SDS011;55596;53.554;9.916;2023-12-07T04:00:43;93.03;;;42.17;;
17796;SDS011;55596;53.554;9.916;2023-12-07T04:03:11;102.40;;;42.10;;
17796;SDS011;55596;53.554;9.916;2023-12-07T04:05:38;98.60;;;42.57;;
17796;SDS011;55596;53.554;9.916;2023-12-07T04:08:05;92.20;;;41.07;;
17796;SDS011;55596;53.554;9.916;2023-12-07T04:10:34;104.70;;;42.47;;
17796;SDS011;55596;53.554;9.916;2023-12-07T04:13:01;97.30;;;42.53;;
17796;SDS011;55596;53.554;9.916;2023-12-07T04:15:28;94.00;;;41.90;;
17796;SDS011;55596;53.554;9.916;2023-12-07T04:17:55;95.10;;;43.43;;
17796;SDS011;55596;53.554;9.916;2023-12-07T04:20:22;92.07;;;40.93;;
17796;SDS011;55596;53.554;9.916;2023-12-07T04:22:49;91.63;;;41.63;;
17796;SDS011;55596;53.554;9.916;2023-12-07T04:25:17;97.40;;;42.57;;
17796;SDS011;55596;53.554;9.916;2023-12-07T04:27:45;97.67;;;41.40;;
17796;SDS011;55596;53.554;9.916;2023-12-07T04:30:13;95.13;;;42.47;;
17796;SDS011;55596;53.554;9.916;2023-12-07T04:32:40;89.93;;;42.00;;
17796;SDS011;55596;53.554;9.916;2023-12-07T04:35:07;95.10;;;41.30;;
17796;SDS011;55596;53.554;9.916;2023-12-07T04:37:34;84.30;;;40.27;;
17796;SDS011;55596;53.554;9.916;2023-12-07T04:40:01;89.23;;;41.90;;
17796;SDS011;55596;53.554;9.916;2023-12-07T04:42:30;92.43;;;41.17;;
17796;SDS011;55596;53.554;9.916;2023-12-07T04:44:58;92.63;;;41.20;;
17796;SDS011;55596;53.554;9.916;2023-12-07T04:47:25;93.53;;;42.50;;
17796;SDS011;55596;53.554;9.916;2023-12-07T04:49:52;114.03;;;42.00;;
17796;SDS011;55596;53.554;9.916;2023-12-07T04:52:19;125.57;;;42.93;;
17796;SDS011;55596;53.554;9.916;2023-12-07T04:54:46;98.70;;;42.50;;
17796;SDS011;55596;53.554;9.916;2023-12-07T04:57:14;101.00;;;42.13;;
17796;SDS011;55596;53.554;9.916;2023-12-07T04:59:41;134.03;;;44.63;;
17796;SDS011;55596;53.554;9.916;2023-12-07T05:02:13;108.57;;;43.57;;
17796;SDS011;55596;53.554;9.916;2023-12-07T05:04:40;113.60;;;43.37;;
17796;SDS011;55596;53.554;9.916;2023-12-07T05:07:07;106.60;;;44.10;;
17796;SDS011;55596;53.554;9.916;2023-12-07T05:09:34;96.13;;;42.63;;
17796;SDS011;55596;53.554;9.916;2023-12-07T05:12:02;106.03;;;42.20;;
17796;SDS011;55596;53.554;9.916;2023-12-07T05:14:30;105.47;;;45.50;;
17796;SDS011;55596;53.554;9.916;2023-12-07T05:16:57;114.40;;;44.63;;
17796;SDS011;55596;53.554;9.916;2023-12-07T05:19:26;102.43;;;43.80;;
17796;SDS011;55596;53.554;9.916;2023-12-07T05:21:53;104.60;;;44.87;;
17796;SDS011;55596;53.554;9.916;2023-12-07T05:24:20;98.33;;;44.23;;
17796;SDS011;55596;53.554;9.916;2023-12-07T05:26:47;102.37;;;44.30;;
17796;SDS011;55596;53.554;9.916;2023-12-07T05:29:14;103.70;;;45.87;;
17796;SDS011;55596;53.554;9.916;2023-12-07T05:31:41;146.03;;;46.70;;
17796;SDS011;55596;53.554;9.916;2023-12-07T05:34:09;115.17;;;48.23;;
17796;SDS011;55596;53.554;9.916;2023-12-07T05:36:37;112.50;;;45.63;;
17796;SDS011;55596;53.554;9.916;2023-12-07T05:39:04;104.20;;;46.23;;
17796;SDS011;55596;53.554;9.916;2023-12-07T05:41:32;162.60;;;47.93;;
17796;SDS011;55596;53.554;9.916;2023-12-07T05:43:59;111.13;;;46.00;;
17796;SDS011;55596;53.554;9.916;2023-12-07T05:46:28;118.93;;;48.53;;
17796;SDS011;55596;53.554;9.916;2023-12-07T05:48:55;122.23;;;47.23;;
17796;SDS011;55596;53.554;9.916;2023-12-07T05:51:23;135.20;;;47.20;;
17796;SDS011;55596;53.554;9.916;2023-12-07T05:53:52;148.80;;;49.03;;
17796;SDS011;55596;53.554;9.916;2023-12-07T05:56:19;105.67;;;46.10;;
17796;SDS011;55596;53.554;9.916;2023-12-07T05:58:46;101.13;;;46.10;;
17796;SDS011;55596;53.554;9.916;2023-12-07T06:01:16;95.67;;;47.53;;
17796;SDS011;55596;53.554;9.916;2023-12-07T06:03:43;91.17;;;45.40;;
17796;SDS011;55596;53.554;9.916;2023-12-07T06:06:11;92.90;;;44.57;;
17796;SDS011;55596;53.554;9.916;2023-12-07T06:08:38;102.17;;;46.50;;
17796;SDS011;55596;53.554;9.916;2023-12-07T06:11:07;112.53;;;46.93;;
17796;SDS011;55596;53.554;9.916;2023-12-07T06:13:34;98.53;;;46.37;;
17796;SDS011;55596;53.554;9.916;2023-12-07T06:16:01;88.10;;;45.43;;
17796;SDS011;55596;53.554;9.916;2023-12-07T06:18:28;97.97;;;47.47;;
17796;SDS011;55596;53.554;9.916;2023-12-07T06:20:55;108.73;;;47.47;;
17796;SDS011;55596;53.554;9.916;2023-12-07T06:23:22;90.13;;;46.60;;
17796;SDS011;55596;53.554;9.916;2023-12-07T06:25:50;91.90;;;47.03;;
17796;SDS011;55596;53.554;9.916;2023-12-07T06:28:18;87.10;;;46.97;;
17796;SDS011;55596;53.554;9.916;2023-12-07T06:30:45;79.33;;;45.87;;
17796;SDS011;55596;53.554;9.916;2023-12-07T06:33:13;84.30;;;44.93;;
17796;SDS011;55596;53.554;9.916;2023-12-07T06:35:40;83.40;;;46.70;;
17796;SDS011;55596;53.554;9.916;2023-12-07T06:38:07;91.83;;;46.90;;
17796;SDS011;55596;53.554;9.916;2023-12-07T06:40:34;85.20;;;47.27;;
17796;SDS011;55596;53.554;9.916;2023-12-07T06:43:01;124.40;;;48.80;;
17796;SDS011;55596;53.554;9.916;2023-12-07T06:45:29;100.20;;;48.47;;
17796;SDS011;55596;53.554;9.916;2023-12-07T06:47:57;86.83;;;46.13;;
17796;SDS011;55596;53.554;9.916;2023-12-07T06:50:24;89.13;;;45.57;;
17796;SDS011;55596;53.554;9.916;2023-12-07T06:52:51;88.50;;;46.07;;
17796;SDS011;55596;53.554;9.916;2023-12-07T06:55:18;82.77;;;46.17;;
17796;SDS011;55596;53.554;9.916;2023-12-07T06:57:45;90.13;;;46.97;;
17796;SDS011;55596;53.554;9.916;2023-12-07T07:00:12;85.73;;;46.40;;
17796;SDS011;55596;53.554;9.916;2023-12-07T07:02:41;82.23;;;46.80;;
17796;SDS011;55596;53.554;9.916;2023-12-07T07:05:08;89.03;;;47.10;;
17796;SDS011;55596;53.554;9.916;2023-12-07T07:07:36;91.93;;;48.33;;
17796;SDS011;55596;53.554;9.916;2023-12-07T07:10:03;88.80;;;47.10;;
17796;SDS011;55596;53.554;9.916;2023-12-07T07:12:31;82.80;;;46.50;;
17796;SDS011;55596;53.554;9.916;2023-12-07T07:14:58;86.70;;;46.43;;
17796;SDS011;55596;53.554;9.916;2023-12-07T07:17:25;77.00;;;45.07;;
17796;SDS011;55596;53.554;9.916;2023-12-07T07:19:55;83.60;;;45.70;;
17796;SDS011;55596;53.554;9.916;2023-12-07T07:22:22;80.53;;;45.57;;
17796;SDS011;55596;53.554;9.916;2023-12-07T07:24:49;79.00;;;46.43;;
17796;SDS011;55596;53.554;9.916;2023-12-07T07:27:17;82.53;;;47.17;;
17796;SDS011;55596;53.554;9.916;2023-12-07T07:29:44;83.53;;;46.30;;
17796;SDS011;55596;53.554;9.916;2023-12-07T07:32:12;88.57;;;45.90;;
17796;SDS011;55596;53.554;9.916;2023-12-07T07:34:39;83.43;;;44.70;;
17796;SDS011;55596;53.554;9.916;2023-12-07T07:37:07;76.97;;;44.47;;
17796;SDS011;55596;53.554;9.916;2023-12-07T07:39:35;83.30;;;46.80;;
17796;SDS011;55596;53.554;9.916;2023-12-07T07:42:02;83.63;;;45.77;;
17796;SDS011;55596;53.554;9.916;2023-12-07T07:44:29;79.43;;;45.77;;
17796;SDS011;55596;53.554;9.916;2023-12-07T07:46:57;79.77;;;45.90;;
17796;SDS011;55596;53.554;9.916;2023-12-07T07:49:24;77.60;;;44.30;;
17796;SDS011;55596;53.554;9.916;2023-12-07T07:51:51;75.10;;;45.30;;
17796;SDS011;55596;53.554;9.916;2023-12-07T07:54:19;75.80;;;44.60;;
17796;SDS011;55596;53.554;9.916;2023-12-07T07:56:46;74.33;;;43.53;;
17796;SDS011;55596;53.554;9.916;2023-12-07T07:59:14;79.53;;;45.90;;
17796;SDS011;55596;53.554;9.916;2023-12-07T08:01:41;78.07;;;43.40;;
17796;SDS011;55596;53.554;9.916;2023-12-07T08:04:09;78.77;;;45.10;;
17796;SDS011;55596;53.554;9.916;2023-12-07T08:06:37;75.40;;;43.23;;
17796;SDS011;55596;53.554;9.916;2023-12-07T08:09:04;79.50;;;43.60;;
17796;SDS011;55596;53.554;9.916;2023-12-07T08:11:32;72.00;;;43.13;;
17796;SDS011;55596;53.554;9.916;2023-12-07T08:14:00;68.40;;;43.23;;
17796;SDS011;55596;53.554;9.916;2023-12-07T08:16:27;73.13;;;43.03;;
17796;SDS011;55596;53.554;9.916;2023-12-07T08:18:54;65.30;;;42.00;;
17796;SDS011;55596;53.554;9.916;2023-12-07T08:21:21;66.77;;;43.17;;
17796;SDS011;55596;53.554;9.916;2023-12-07T08:23:49;64.70;;;42.03;;
17796;SDS011;55596;53.554;9.916;2023-12-07T08:26:16;57.63;;;39.50;;
17796;SDS011;55596;53.554;9.916;2023-12-07T08:28:44;67.77;;;42.10;;
17796;SDS011;55596;53.554;9.916;2023-12-07T08:31:12;70.60;;;44.33;;
17796;SDS011;55596;53.554;9.916;2023-12-07T08:33:39;70.13;;;41.87;;
17796;SDS011;55596;53.554;9.916;2023-12-07T08:36:06;67.30;;;42.23;;
17796;SDS011;55596;53.554;9.916;2023-12-07T08:38:33;67.40;;;43.07;;
17796;SDS011;55596;53.554;9.916;2023-12-07T08:41:00;68.77;;;39.97;;
17796;SDS011;55596;53.554;9.916;2023-12-07T08:43:28;64.60;;;39.13;;
17796;SDS011;55596;53.554;9.916;2023-12-07T08:45:57;61.33;;;40.90;;
17796;SDS011;55596;53.554;9.916;2023-12-07T08:48:24;60.90;;;40.13;;
17796;SDS011;55596;53.554;9.916;2023-12-07T08:50:51;62.93;;;40.47;;
17796;SDS011;55596;53.554;9.916;2023-12-07T08:53:18;62.23;;;40.80;;
17796;SDS011;55596;53.554;9.916;2023-12-07T08:55:45;66.47;;;40.67;;
17796;SDS011;55596;53.554;9.916;2023-12-07T08:58:12;62.40;;;41.10;;
17796;SDS011;55596;53.554;9.916;2023-12-07T09:00:39;63.47;;;39.90;;
17796;SDS011;55596;53.554;9.916;2023-12-07T09:03:08;69.97;;;42.83;;
17796;SDS011;55596;53.554;9.916;2023-12-07T09:05:35;67.53;;;43.33;;
17796;SDS011;55596;53.554;9.916;2023-12-07T09:08:02;76.07;;;45.00;;
17796;SDS011;55596;53.554;9.916;2023-12-07T09:10:29;151.23;;;47.43;;
17796;SDS011;55596;53.554;9.916;2023-12-07T09:12:56;111.03;;;46.27;;
17796;SDS011;55596;53.554;9.916;2023-12-07T09:15:23;309.97;;;50.83;;
17796;SDS011;55596;53.554;9.916;2023-12-07T09:17:51;126.60;;;44.57;;
17796;SDS011;55596;53.554;9.916;2023-12-07T09:20:19;148.13;;;45.80;;
17796;SDS011;55596;53.554;9.916;2023-12-07T09:22:46;154.73;;;45.60;;
17796;SDS011;55596;53.554;9.916;2023-12-07T09:25:15;118.97;;;46.77;;
17796;SDS011;55596;53.554;9.916;2023-12-07T09:27:42;228.93;;;49.93;;
17796;SDS011;55596;53.554;9.916;2023-12-07T09:30:10;719.43;;;64.37;;
17796;SDS011;55596;53.554;9.916;2023-12-07T09:32:37;277.47;;;52.27;;
17796;SDS011;55596;53.554;9.916;2023-12-07T09:35:04;347.03;;;52.40;;
17796;SDS011;55596;53.554;9.916;2023-12-07T09:37:33;76.60;;;45.00;;
17796;SDS011;55596;53.554;9.916;2023-12-07T09:40:03;155.93;;;45.87;;
17796;SDS011;55596;53.554;9.916;2023-12-07T09:42:30;216.27;;;44.90;;
17796;SDS011;55596;53.554;9.916;2023-12-07T09:44:57;268.83;;;46.13;;
17796;SDS011;55596;53.554;9.916;2023-12-07T09:47:25;91.27;;;42.77;;
17796;SDS011;55596;53.554;9.916;2023-12-07T09:49:53;793.63;;;60.07;;
17796;SDS011;55596;53.554;9.916;2023-12-07T09:52:20;448.10;;;49.80;;
17796;SDS011;55596;53.554;9.916;2023-12-07T09:54:49;501.13;;;51.10;;
17796;SDS011;55596;53.554;9.916;2023-12-07T09:57:17;680.13;;;56.27;;
17796;SDS011;55596;53.554;9.916;2023-12-07T09:59:44;550.10;;;50.57;;
17796;SDS011;55596;53.554;9.916;2023-12-07T10:02:11;847.23;;;61.47;;
17796;SDS011;55596;53.554;9.916;2023-12-07T10:04:38;579.77;;;49.40;;
17796;SDS011;55596;53.554;9.916;2023-12-07T10:07:06;293.37;;;42.67;;
17796;SDS011;55596;53.554;9.916;2023-12-07T10:09:33;444.87;;;46.23;;
17796;SDS011;55596;53.554;9.916;2023-12-07T10:12:05;380.27;;;46.10;;
17796;SDS011;55596;53.554;9.916;2023-12-07T10:14:32;238.43;;;39.63;;
17796;SDS011;55596;53.554;9.916;2023-12-07T10:17:00;396.23;;;46.13;;
17796;SDS011;55596;53.554;9.916;2023-12-07T10:19:27;356.33;;;45.80;;
17796;SDS011;55596;53.554;9.916;2023-12-07T10:21:54;385.80;;;45.20;;
17796;SDS011;55596;53.554;9.916;2023-12-07T10:24:22;480.43;;;47.37;;
17796;SDS011;55596;53.554;9.916;2023-12-07T10:26:49;456.70;;;44.77;;
17796;SDS011;55596;53.554;9.916;2023-12-07T10:29:18;438.10;;;44.43;;
17796;SDS011;55596;53.554;9.916;2023-12-07T10:31:48;303.43;;;42.97;;
17796;SDS011;55596;53.554;9.916;2023-12-07T10:34:17;514.17;;;49.13;;
17796;SDS011;55596;53.554;9.916;2023-12-07T10:36:45;266.03;;;40.70;;
17796;SDS011;55596;53.554;9.916;2023-12-07T10:39:13;266.27;;;40.17;;
17796;SDS011;55596;53.554;9.916;2023-12-07T10:41:41;289.40;;;40.70;;
17796;SDS011;55596;53.554;9.916;2023-12-07T10:44:09;230.63;;;41.47;;
17796;SDS011;55596;53.554;9.916;2023-12-07T10:46:39;170.63;;;38.07;;
17796;SDS011;55596;53.554;9.916;2023-12-07T10:49:11;225.57;;;37.80;;
17796;SDS011;55596;53.554;9.916;2023-12-07T10:51:41;136.97;;;33.77;;
17796;SDS011;55596;53.554;9.916;2023-12-07T10:54:08;131.63;;;35.20;;
17796;SDS011;55596;53.554;9.916;2023-12-07T10:56:38;76.67;;;33.10;;
17796;SDS011;55596;53.554;9.916;2023-12-07T10:59:07;85.57;;;34.20;;
17796;SDS011;55596;53.554;9.916;2023-12-07T11:01:35;143.73;;;34.73;;
17796;SDS011;55596;53.554;9.916;2023-12-07T11:04:05;37.63;;;29.60;;
17796;SDS011;55596;53.554;9.916;2023-12-07T11:06:32;38.40;;;29.80;;
17796;SDS011;55596;53.554;9.916;2023-12-07T11:09:00;37.30;;;29.30;;
17796;SDS011;55596;53.554;9.916;2023-12-07T11:11:29;35.57;;;28.43;;
17796;SDS011;55596;53.554;9.916;2023-12-07T11:13:58;42.97;;;29.10;;
17796;SDS011;55596;53.554;9.916;2023-12-07T11:16:28;37.83;;;28.93;;
17796;SDS011;55596;53.554;9.916;2023-12-07T11:18:56;41.80;;;29.83;;
17796;SDS011;55596;53.554;9.916;2023-12-07T11:21:24;40.78;;;35.90;;
17796;SDS011;55596;53.554;9.916;2023-12-07T11:23:52;35.87;;;29.13;;
17796;SDS011;55596;53.554;9.916;2023-12-07T11:26:19;37.67;;;28.93;;
17796;SDS011;55596;53.554;9.916;2023-12-07T11:28:46;37.10;;;28.83;;
17796;SDS011;55596;53.554;9.916;2023-12-07T11:31:14;41.67;;;28.80;;
17796;SDS011;55596;53.554;9.916;2023-12-07T11:33:41;36.43;;;29.13;;
17796;SDS011;55596;53.554;9.916;2023-12-07T11:36:10;36.67;;;29.20;;
17796;SDS011;55596;53.554;9.916;2023-12-07T11:41:23;37.83;;;28.40;;
17796;SDS011;55596;53.554;9.916;2023-12-07T11:43:50;35.23;;;27.87;;
17796;SDS011;55596;53.554;9.916;2023-12-07T11:46:20;36.90;;;28.83;;
17796;SDS011;55596;53.554;9.916;2023-12-07T11:48:49;37.00;;;29.07;;
17796;SDS011;55596;53.554;9.916;2023-12-07T11:51:16;39.33;;;29.03;;
17796;SDS011;55596;53.554;9.916;2023-12-07T11:53:46;39.33;;;30.33;;
17796;SDS011;55596;53.554;9.916;2023-12-07T11:56:15;39.33;;;29.90;;
17796;SDS011;55596;53.554;9.916;2023-12-07T11:58:46;37.47;;;29.97;;
17796;SDS011;55596;53.554;9.916;2023-12-07T12:01:14;41.77;;;30.43;;
17796;SDS011;55596;53.554;9.916;2023-12-07T12:03:42;41.53;;;30.77;;
17796;SDS011;55596;53.554;9.916;2023-12-07T12:06:09;35.50;;;28.60;;
17796;SDS011;55596;53.554;9.916;2023-12-07T12:08:37;36.17;;;27.97;;
17796;SDS011;55596;53.554;9.916;2023-12-07T12:11:05;36.23;;;28.53;;
17796;SDS011;55596;53.554;9.916;2023-12-07T12:13:33;35.10;;;27.83;;
17796;SDS011;55596;53.554;9.916;2023-12-07T12:16:00;38.73;;;27.67;;
17796;SDS011;55596;53.554;9.916;2023-12-07T12:18:28;33.67;;;26.33;;
17796;SDS011;55596;53.554;9.916;2023-12-07T12:20:55;37.00;;;33.17;;
17796;SDS011;55596;53.554;9.916;2023-12-07T12:23:24;31.97;;;27.93;;
17796;SDS011;55596;53.554;9.916;2023-12-07T12:25:51;32.33;;;26.93;;
17796;SDS011;55596;53.554;9.916;2023-12-07T12:28:20;35.03;;;27.73;;
17796;SDS011;55596;53.554;9.916;2023-12-07T12:30:48;34.40;;;27.13;;
17796;SDS011;55596;53.554;9.916;2023-12-07T12:33:16;33.87;;;27.17;;
17796;SDS011;55596;53.554;9.916;2023-12-07T12:35:44;32.23;;;26.57;;
17796;SDS011;55596;53.554;9.916;2023-12-07T12:38:11;38.50;;;29.70;;
17796;SDS011;55596;53.554;9.916;2023-12-07T12:40:39;36.90;;;29.27;;
17796;SDS011;55596;53.554;9.916;2023-12-07T12:43:07;38.60;;;30.97;;
17796;SDS011;55596;53.554;9.916;2023-12-07T12:45:37;41.47;;;30.53;;
17796;SDS011;55596;53.554;9.916;2023-12-07T12:48:04;40.40;;;31.00;;
17796;SDS011;55596;53.554;9.916;2023-12-07T12:50:33;42.00;;;30.97;;
17796;SDS011;55596;53.554;9.916;2023-12-07T12:53:02;41.63;;;30.43;;
17796;SDS011;55596;53.554;9.916;2023-12-07T12:55:30;41.80;;;31.70;;
17796;SDS011;55596;53.554;9.916;2023-12-07T12:57:57;40.53;;;31.50;;
17796;SDS011;55596;53.554;9.916;2023-12-07T13:00:25;38.60;;;29.50;;
17796;SDS011;55596;53.554;9.916;2023-12-07T13:02:54;38.97;;;30.07;;
17796;SDS011;55596;53.554;9.916;2023-12-07T13:05:21;40.97;;;31.13;;
17796;SDS011;55596;53.554;9.916;2023-12-07T13:07:49;40.37;;;30.17;;
17796;SDS011;55596;53.554;9.916;2023-12-07T13:10:16;41.27;;;30.60;;
17796;SDS011;55596;53.554;9.916;2023-12-07T13:12:43;42.93;;;30.33;;
17796;SDS011;55596;53.554;9.916;2023-12-07T13:15:11;37.83;;;28.93;;
17796;SDS011;55596;53.554;9.916;2023-12-07T13:17:38;43.07;;;30.47;;
17796;SDS011;55596;53.554;9.916;2023-12-07T13:20:07;43.33;;;30.63;;
17796;SDS011;55596;53.554;9.916;2023-12-07T13:22:36;45.67;;;29.83;;
17796;SDS011;55596;53.554;9.916;2023-12-07T13:25:04;43.87;;;33.93;;
17796;SDS011;55596;53.554;9.916;2023-12-07T13:27:31;43.70;;;32.00;;
17796;SDS011;55596;53.554;9.916;2023-12-07T13:29:59;44.90;;;33.13;;
17796;SDS011;55596;53.554;9.916;2023-12-07T13:32:26;43.70;;;32.40;;
17796;SDS011;55596;53.554;9.916;2023-12-07T13:34:53;48.40;;;33.30;;
17796;SDS011;55596;53.554;9.916;2023-12-07T13:37:21;46.80;;;33.80;;
17796;SDS011;55596;53.554;9.916;2023-12-07T13:39:48;49.67;;;34.40;;
17796;SDS011;55596;53.554;9.916;2023-12-07T13:42:21;57.23;;;35.80;;
17796;SDS011;55596;53.554;9.916;2023-12-07T13:44:51;48.33;;;34.83;;
17796;SDS011;55596;53.554;9.916;2023-12-07T13:47:18;48.70;;;34.50;;
17796;SDS011;55596;53.554;9.916;2023-12-07T13:49:48;47.67;;;34.63;;
17796;SDS011;55596;53.554;9.916;2023-12-07T13:52:15;47.93;;;33.23;;
17796;SDS011;55596;53.554;9.916;2023-12-07T13:54:44;44.63;;;34.07;;
17796;SDS011;55596;53.554;9.916;2023-12-07T13:57:11;43.33;;;32.20;;
17796;SDS011;55596;53.554;9.916;2023-12-07T13:59:38;45.17;;;31.97;;
17796;SDS011;55596;53.554;9.916;2023-12-07T14:02:05;44.67;;;32.47;;
17796;SDS011;55596;53.554;9.916;2023-12-07T14:04:33;45.87;;;33.40;;
17796;SDS011;55596;53.554;9.916;2023-12-07T14:07:07;43.13;;;32.30;;
17796;SDS011;55596;53.554;9.916;2023-12-07T14:09:36;45.97;;;32.30;;
17796;SDS011;55596;53.554;9.916;2023-12-07T14:12:05;43.70;;;32.60;;
17796;SDS011;55596;53.554;9.916;2023-12-07T14:14:33;49.23;;;33.03;;
17796;SDS011;55596;53.554;9.916;2023-12-07T14:17:00;48.13;;;33.90;;
17796;SDS011;55596;53.554;9.916;2023-12-07T14:19:28;45.93;;;32.60;;
17796;SDS011;55596;53.554;9.916;2023-12-07T14:21:55;46.13;;;33.20;;